LSZH/ZRH METAR and TAF weather

Enter ICAO airport designator
Station Type Date Time Source
LSZH METAR 2019/02/20 17:50 UTC NOAA

LSZH 201750Z 06002KT CAVOK 07/02 Q1025 NOSIG


Station Type Date Time Source
LSZH Decoded METAR 2019/02/20 17:50 UTC NOAA

Zurich-Kloten, Switzerland (LSZH) 47-29N 008-32E 432M
Feb 20, 2019 - 12:50 PM EST / 2019.02.20 1750 UTC
Wind: from the ENE (060 degrees) at 2 MPH (2 KT):0
Visibility: greater than 7 mile(s):0
Temperature: 44 F (7 C)
Dew Point: 35 F (2 C)
Relative Humidity: 70%
Pressure (altimeter): 30.27 in. Hg (1025 hPa)
ob: LSZH 201750Z 06002KT CAVOK 07/02 Q1025 NOSIG
cycle: 18

Station Type Date Time Source
LSZH TAF 2019/02/20 18:33 UTC NOAA

TAF LSZH 201725Z 2018/2124 VRB03KT CAVOK TX14/2115Z TNM02/2106Z
BECMG 2100/2103 7000 MIFG PROB40
TEMPO 2104/2108 4000 BR NSC
BECMG 2108/2111 CAVOK


Example: see airport list